< < Back
Terminal Aerodrome Forecast


Current Version              Previous Versions:   1  2  3  4  5  6  7  8  9  

Terminal Aerodrome Forecast

053
FTUS42 KGSP 310500
TAFGSP
TAF
KGSP 310534Z 3106/0106 04003KT P6SM BKN070
     FM311100 04004KT P6SM VCSH BKN025
     FM311600 08005KT P6SM VCTS BKN045CB
     FM312300 06006KT P6SM VCTS OVC024CB=

Latest METAR

223
SAUS70 KWBC 310700 RRA
MTRGSP
METAR KGSP 310653Z AUTO 03005KT 10SM CLR 21/17 A3007 RMK AO2 SLP171
T02110167


USA.gov is the U.S. government's official web portal to all federal, state and local government web resources and services.